CSN442 ZBAD-ZSPD
Flight info
| Callsign | CSN442 |
|---|---|
| Flight time | N/A |
| Altitude | 41100 |
| Route | ELKUR4K ELKUR W40 YQG/K0893S1220 W142 DALIM/K0891S1250 A593 DPX A470 DALNU W166 ZJ W167 SASAN R343 EKIMU |
| Aircraft | A359/H-SDE2E3GHIJ3J4J5LM1ORWXY/LB1D1 |
Departure
| Time | 2026-04-27 19:07 |
|---|---|
| Airport | Beijing Daxing International Airport (ZBAD) |
Arrival
| Time | N/A |
|---|---|
| Airport | Shanghai Pudong International Airport (ZSPD) |
| Time | Latitude | Longitude | Altitude | Speed | Heading |
|---|---|---|---|---|---|
| 2026-04-27 18:47 | 39.50836 | 116.40568 | 94 ft | 0 kts | 155° |
| 2026-04-27 18:58 | 39.50853 | 116.40559 | 95 ft | 4 kts | 161° |
| 2026-04-27 18:58 | 39.50879 | 116.40550 | 91 ft | 4 kts | 175° |
| 2026-04-27 18:58 | 39.50905 | 116.40551 | 92 ft | 4 kts | 197° |
| 2026-04-27 18:58 | 39.50926 | 116.40567 | 93 ft | 4 kts | 240° |
| 2026-04-27 18:59 | 39.50931 | 116.40578 | 93 ft | 0 kts | 246° |
| 2026-04-27 19:01 | 39.50923 | 116.40556 | 96 ft | 8 kts | 246° |
| 2026-04-27 19:02 | 39.50896 | 116.40467 | 94 ft | 12 kts | 250° |
| 2026-04-27 19:02 | 39.50869 | 116.40350 | 95 ft | 15 kts | 261° |
| 2026-04-27 19:02 | 39.50855 | 116.40209 | 94 ft | 17 kts | 263° |
| 2026-04-27 19:02 | 39.50841 | 116.40055 | 95 ft | 12 kts | 267° |
| 2026-04-27 19:03 | 39.50887 | 116.39983 | 94 ft | 12 kts | 345° |
| 2026-04-27 19:03 | 39.50975 | 116.39967 | 95 ft | 14 kts | 353° |
| 2026-04-27 19:03 | 39.51091 | 116.39949 | 94 ft | 19 kts | 353° |
| 2026-04-27 19:03 | 39.51183 | 116.39935 | 96 ft | 20 kts | 353° |
| 2026-04-27 19:04 | 39.51381 | 116.39905 | 96 ft | 23 kts | 353° |
| 2026-04-27 19:04 | 39.51543 | 116.39878 | 97 ft | 24 kts | 353° |
| 2026-04-27 19:04 | 39.51716 | 116.39851 | 95 ft | 23 kts | 353° |
| 2026-04-27 19:04 | 39.51793 | 116.39768 | 99 ft | 14 kts | 276° |
| 2026-04-27 19:05 | 39.51781 | 116.39628 | 103 ft | 18 kts | 263° |
| 2026-04-27 19:05 | 39.51762 | 116.39419 | 98 ft | 28 kts | 263° |
| 2026-04-27 19:05 | 39.51737 | 116.39155 | 94 ft | 30 kts | 263° |
| 2026-04-27 19:05 | 39.51713 | 116.38903 | 98 ft | 22 kts | 263° |
| 2026-04-27 19:06 | 39.51656 | 116.38765 | 102 ft | 17 kts | 209° |
| 2026-04-27 19:06 | 39.51579 | 116.38759 | 103 ft | 8 kts | 172° |
| 2026-04-27 19:06 | 39.51425 | 116.38786 | 104 ft | 53 kts | 173° |
| 2026-04-27 19:06 | 39.50803 | 116.38883 | 106 ft | 124 kts | 172° |
| 2026-04-27 19:07 | 39.49741 | 116.39052 | 153 ft | 178 kts | 169° |
| 2026-04-27 19:07 | 39.48527 | 116.39295 | 976 ft | 171 kts | 172° |
| 2026-04-27 19:07 | 39.47378 | 116.39504 | 1892 ft | 167 kts | 172° |
| 2026-04-27 19:07 | 39.46183 | 116.39706 | 2364 ft | 185 kts | 172° |
| 2026-04-27 19:08 | 39.44832 | 116.39920 | 2680 ft | 211 kts | 173° |
| 2026-04-27 19:08 | 39.43286 | 116.40150 | 3049 ft | 235 kts | 174° |
| 2026-04-27 19:08 | 39.41571 | 116.40366 | 3488 ft | 259 kts | 175° |
| 2026-04-27 19:08 | 39.39721 | 116.40576 | 4143 ft | 271 kts | 175° |
| 2026-04-27 19:09 | 39.37840 | 116.40789 | 5098 ft | 272 kts | 175° |
| 2026-04-27 19:09 | 39.35959 | 116.41133 | 5961 ft | 277 kts | 165° |
| 2026-04-27 19:09 | 39.34203 | 116.42230 | 6768 ft | 286 kts | 143° |
| 2026-04-27 19:09 | 39.32982 | 116.44263 | 7563 ft | 293 kts | 110° |
| 2026-04-27 19:10 | 39.32760 | 116.46808 | 8402 ft | 291 kts | 75° |
| 2026-04-27 19:10 | 39.33515 | 116.49193 | 9314 ft | 286 kts | 51° |
| 2026-04-27 19:10 | 39.34560 | 116.51413 | 10163 ft | 297 kts | 59° |
| 2026-04-27 19:10 | 39.34999 | 116.53134 | 10594 ft | 312 kts | 75° |
| 2026-04-27 19:11 | 39.35356 | 116.57056 | 11132 ft | 346 kts | 85° |
| 2026-04-27 19:11 | 39.35294 | 116.60273 | 11540 ft | 369 kts | 91° |
| 2026-04-27 19:11 | 39.35117 | 116.63656 | 12057 ft | 385 kts | 92° |
| 2026-04-27 19:11 | 39.34914 | 116.67151 | 12762 ft | 394 kts | 92° |
| 2026-04-27 19:12 | 39.34707 | 116.70670 | 13492 ft | 402 kts | 93° |
| 2026-04-27 19:12 | 39.34492 | 116.74305 | 14203 ft | 410 kts | 93° |
| 2026-04-27 19:12 | 39.34143 | 116.77980 | 14880 ft | 417 kts | 102° |
| 2026-04-27 19:12 | 39.33097 | 116.81481 | 15563 ft | 421 kts | 122° |
| 2026-04-27 19:13 | 39.31236 | 116.84373 | 16257 ft | 420 kts | 143° |
| 2026-04-27 19:13 | 39.28784 | 116.86356 | 16991 ft | 415 kts | 161° |
| 2026-04-27 19:13 | 39.26085 | 116.87691 | 17717 ft | 416 kts | 170° |
| 2026-04-27 19:13 | 39.23254 | 116.88237 | 18436 ft | 408 kts | 187° |
| 2026-04-27 19:14 | 39.20435 | 116.88035 | 19175 ft | 404 kts | 195° |
| 2026-04-27 19:14 | 39.17711 | 116.87478 | 19977 ft | 400 kts | 200° |
| 2026-04-27 19:14 | 39.14992 | 116.86727 | 20778 ft | 399 kts | 203° |
| 2026-04-27 19:14 | 39.12289 | 116.85895 | 21526 ft | 400 kts | 204° |
| 2026-04-27 19:15 | 39.09574 | 116.85042 | 22272 ft | 403 kts | 205° |
| 2026-04-27 19:15 | 39.06835 | 116.84200 | 23024 ft | 406 kts | 205° |
| 2026-04-27 19:15 | 39.04070 | 116.83376 | 23760 ft | 410 kts | 205° |
| 2026-04-27 19:15 | 39.01276 | 116.82566 | 24354 ft | 413 kts | 205° |
| 2026-04-27 19:16 | 38.98497 | 116.81776 | 24948 ft | 416 kts | 205° |
| 2026-04-27 19:16 | 38.96581 | 116.81237 | 25298 ft | 418 kts | 205° |
| 2026-04-27 19:16 | 38.92798 | 116.80178 | 26061 ft | 422 kts | 205° |
| 2026-04-27 19:16 | 38.89919 | 116.79375 | 26673 ft | 424 kts | 205° |
| 2026-04-27 19:17 | 38.87027 | 116.78569 | 27264 ft | 427 kts | 205° |
| 2026-04-27 19:17 | 38.84116 | 116.77756 | 27854 ft | 429 kts | 205° |
| 2026-04-27 19:17 | 38.81186 | 116.76938 | 28447 ft | 432 kts | 206° |
| 2026-04-27 19:17 | 38.78239 | 116.76114 | 28940 ft | 435 kts | 206° |
| 2026-04-27 19:18 | 38.75281 | 116.75289 | 29531 ft | 436 kts | 206° |
| 2026-04-27 19:18 | 38.72306 | 116.74459 | 30060 ft | 439 kts | 206° |
| 2026-04-27 19:18 | 38.69351 | 116.73634 | 30493 ft | 442 kts | 206° |
| 2026-04-27 19:18 | 38.66339 | 116.72794 | 30887 ft | 445 kts | 206° |
| 2026-04-27 19:19 | 38.63304 | 116.71948 | 31270 ft | 448 kts | 206° |
| 2026-04-27 19:19 | 38.60251 | 116.71099 | 31663 ft | 450 kts | 207° |
| 2026-04-27 19:19 | 38.57185 | 116.70249 | 32012 ft | 451 kts | 207° |
| 2026-04-27 19:19 | 38.54114 | 116.69399 | 32411 ft | 453 kts | 207° |
| 2026-04-27 19:20 | 38.51023 | 116.68544 | 32759 ft | 455 kts | 207° |
| 2026-04-27 19:20 | 38.47963 | 116.67696 | 33105 ft | 457 kts | 207° |
| 2026-04-27 19:20 | 38.44866 | 116.66843 | 33603 ft | 455 kts | 207° |
| 2026-04-27 19:20 | 38.41781 | 116.65999 | 34138 ft | 452 kts | 207° |
| 2026-04-27 19:21 | 38.38708 | 116.65156 | 34466 ft | 451 kts | 207° |
| 2026-04-27 19:21 | 38.35656 | 116.64317 | 34887 ft | 448 kts | 207° |
| 2026-04-27 19:21 | 38.32546 | 116.63624 | 35188 ft | 461 kts | 202° |
| 2026-04-27 19:21 | 38.29281 | 116.63393 | 35462 ft | 480 kts | 195° |
| 2026-04-27 19:22 | 38.25882 | 116.63781 | 35731 ft | 501 kts | 186° |
| 2026-04-27 19:22 | 38.22422 | 116.64680 | 35996 ft | 514 kts | 181° |
| 2026-04-27 19:22 | 38.18941 | 116.65892 | 36255 ft | 522 kts | 179° |
| 2026-04-27 19:22 | 38.15502 | 116.67235 | 36466 ft | 525 kts | 177° |
| 2026-04-27 19:23 | 38.12014 | 116.68640 | 36722 ft | 527 kts | 177° |
| 2026-04-27 19:23 | 38.08517 | 116.70042 | 36955 ft | 527 kts | 177° |
| 2026-04-27 19:23 | 38.05011 | 116.71439 | 37205 ft | 528 kts | 177° |
| 2026-04-27 19:23 | 38.01501 | 116.72819 | 37445 ft | 528 kts | 178° |
| 2026-04-27 19:24 | 37.97984 | 116.74182 | 37677 ft | 529 kts | 178° |
| 2026-04-27 19:24 | 37.94461 | 116.75533 | 37914 ft | 529 kts | 178° |
| 2026-04-27 19:24 | 37.90936 | 116.76875 | 38148 ft | 530 kts | 178° |
| 2026-04-27 19:24 | 37.87447 | 116.78197 | 38368 ft | 531 kts | 178° |
| 2026-04-27 19:25 | 37.83908 | 116.79536 | 38591 ft | 531 kts | 178° |
| 2026-04-27 19:25 | 37.80361 | 116.80877 | 38803 ft | 532 kts | 178° |
| 2026-04-27 19:25 | 37.76815 | 116.82219 | 38998 ft | 532 kts | 178° |
| 2026-04-27 19:25 | 37.73273 | 116.83560 | 39237 ft | 531 kts | 178° |
| 2026-04-27 19:26 | 37.69739 | 116.84898 | 39412 ft | 530 kts | 176° |
| 2026-04-27 19:26 | 37.66202 | 116.86233 | 39595 ft | 530 kts | 176° |
| 2026-04-27 19:26 | 37.62671 | 116.87565 | 39813 ft | 529 kts | 176° |
| 2026-04-27 19:26 | 37.59188 | 116.88876 | 39991 ft | 529 kts | 176° |
| 2026-04-27 19:27 | 37.55664 | 116.90202 | 40186 ft | 529 kts | 176° |
| 2026-04-27 19:27 | 37.52145 | 116.91526 | 40395 ft | 528 kts | 176° |
| 2026-04-27 19:27 | 37.48627 | 116.92847 | 40598 ft | 527 kts | 175° |
| 2026-04-27 19:28 | 37.41589 | 116.95482 | 40778 ft | 529 kts | 175° |
| 2026-04-27 19:28 | 37.38058 | 116.96802 | 40943 ft | 529 kts | 175° |
| 2026-04-27 19:28 | 37.34581 | 116.98103 | 41093 ft | 529 kts | 175° |
| 2026-04-27 19:29 | 37.27537 | 117.00760 | 41120 ft | 530 kts | 173° |
| 2026-04-27 19:29 | 37.20558 | 117.03956 | 41117 ft | 536 kts | 169° |
| 2026-04-27 19:30 | 37.13605 | 117.07367 | 41114 ft | 536 kts | 169° |
| 2026-04-27 19:30 | 37.06644 | 117.10703 | 41116 ft | 535 kts | 170° |
| 2026-04-27 19:31 | 36.99715 | 117.13947 | 41117 ft | 535 kts | 170° |
| 2026-04-27 19:31 | 36.92745 | 117.17182 | 41113 ft | 534 kts | 170° |
| 2026-04-27 19:32 | 36.85769 | 117.20308 | 41112 ft | 527 kts | 175° |
| 2026-04-27 19:32 | 36.82242 | 117.21244 | 41111 ft | 511 kts | 185° |
| 2026-04-27 19:32 | 36.78742 | 117.21555 | 41111 ft | 500 kts | 190° |
| 2026-04-27 19:33 | 36.71869 | 117.21638 | 41105 ft | 495 kts | 192° |